Flight Track Log - Related Links

Times and Time Zones

All times are in EST time to prevent confusion due to time zone crossing. See the EJA831 flight status page for this flight to view local times or setup timezone preferences in your user account.

Time Position Orientation Groundspeed Altitude Reporting Facility
EST Latitude Longitude Course Direction KTS MPH feet Rate Location/Type
Mon 10:22:31 AM 27.9667 -82.5333 204° Southwest 182 209 1,000  Level Tampa TRACON
Mon 10:23:19 AM 27.9333 -82.5500 204° Southwest 203 234 4,500 4,053 Climbing Tampa TRACON
Mon 10:24:25 AM 27.8667 -82.5667 192° South 242 278 8,700 2,612 Climbing Tampa TRACON
Mon 10:26:09 AM 27.7367 -82.5617 178° South 278 320 11,900 1,793 Climbing Miami Center
Mon 10:27:09 AM 27.6508 -82.5200 157° South 301 346 13,600 1,450 Climbing Miami Center
Mon 10:28:09 AM 27.5647 -82.4806 158° South 323 372 14,800 650 Climbing Miami Center
Mon 10:29:09 AM 27.4769 -82.4272 152° Southeast 344 396 14,900 50 Climbing Miami Center
Mon 10:30:09 AM 27.4022 -82.3653 144° Southeast 344 396 14,900  Level Miami Center
Mon 10:31:09 AM 27.3256 -82.2961 141° Southeast 344 396 14,900  Level Miami Center
Mon 10:32:09 AM 27.2467 -82.2269 142° Southeast 356 410 14,900  Level Miami Center
Mon 10:33:09 AM 27.1700 -82.1581 141° Southeast 356 410 14,900  Level Miami Center
Mon 10:34:09 AM 27.0933 -82.0894 141° Southeast 356 410 14,900  Level Miami Center
Mon 10:35:09 AM 27.0142 -82.0206 142° Southeast 356 410 14,900 50 Level Miami Center
Mon 10:36:09 AM 26.9394 -81.9519 141° Southeast 351 404 15,000 50 Climbing Miami Center
Mon 10:37:09 AM 26.8564 -81.8764 141° Southeast 356 410 15,000 -50 Level Miami Center
Mon 10:38:09 AM 26.7922 -81.8061 136° Southeast 362 417 14,900 -50 Descending Miami Center
Mon 10:39:09 AM 26.7217 -81.7286 136° Southeast 362 417 14,900  Level Miami Center
Mon 10:40:09 AM 26.6831 -81.6342 115° Southeast 341 392 14,900  Level Miami Center
Mon 10:41:09 AM 26.7119 -81.5192 74° East 322 371 14,900  Level Miami Center
Mon 10:42:09 AM 26.7428 -81.3969 74° East 350 403 14,900  Level Miami Center
Mon 10:43:09 AM 26.7692 -81.2864 75° East 363 418 14,900 -250 Level Miami Center
Mon 10:44:09 AM 26.7956 -81.1733 75° East 363 418 14,400 -1,050 Descending Miami Center
Mon 10:45:09 AM 26.8197 -81.0650 76° East 363 418 12,800 -1,400 Descending Miami Center
Mon 10:46:09 AM 26.8289 -80.9653 84° East 363 418 11,600 -1,300 Descending Miami Center
Mon 10:47:09 AM 26.8378 -80.8678 84° East 341 392 10,200 -800 Descending Miami Center
Mon 10:48:09 AM 26.8128 -80.7856 109° East 284 327 10,000 -450 Descending Miami Center
Mon 10:49:09 AM 26.7758 -80.6911 114° Southeast 289 333 9,300 -900 Descending Miami Center
Mon 10:50:09 AM 26.7544 -80.6300 111° Southeast 257 296 8,200 -1,350 Descending Miami Center
Mon 10:51:09 AM 26.7289 -80.5642 113° Southeast 220 253 6,600 -1,350 Descending Miami Center
Mon 10:52:09 AM 26.7094 -80.5078 111° Southeast 200 230 5,500 -750 Descending Miami Center
Mon 10:53:09 AM 26.6983 -80.4517 102° East 194 223 5,100 -450 Descending Miami Center
Mon 10:54:09 AM 26.6933 -80.3933 95° East 189 217 4,600 -850 Descending Miami Center
Mon 10:55:09 AM 26.6906 -80.3350 93° East 184 212 3,400 -1,200 Descending Miami Center
Mon 10:57:00 AM 26.6853 -80.1634 53° Northeast  Level Estimated
Mon 11:04:00 AM 26.6832 -80.0956 50° Northeast  Level Estimated
Mon 11:05:00 AM 26.6832 -80.0956 50° Northeast  Level Estimated
Mon 11:06:00 AM 26.6832 -80.0956 50° Northeast  Level Estimated
Mon 11:07:00 AM 26.6832 -80.0956 50° Northeast  Level Estimated
Mon 11:08:00 AM 26.6832 -80.0956 50° Northeast  Level Estimated
Mon 11:09:00 AM 26.6832 -80.0956 50° Northeast  Level Estimated

Login

Don't have an account? Register now (free) for customized features, flight alerts, and more!